Time;durP1;ratioP1;P1;durP2;ratioP2;P2;SDS_P1;SDS_P2;PMS_P1;PMS_P2;Temp;Humidity;BMP_temperature;BMP_pressure;BME280_temperature;BME280_humidity;BME280_pressure;Samples;Min_cycle;Max_cycle;Signal;HPM_P1;HPM_P2
2020/12/01 00:01:11;;;;;;;17.20;9.85;;;6.60;96.40;;;6.04;83.52;100242.41;5067635;28;20505;-84
2020/12/01 00:03:40;;;;;;;17.60;9.25;;;6.60;96.70;;;6.08;83.42;100243.78;5066631;28;20053;-83
2020/12/01 00:06:09;;;;;;;15.65;9.00;;;6.60;96.80;;;6.08;83.21;100243.78;5067803;28;20044;-84
2020/12/01 00:08:36;;;;;;;17.90;9.35;;;6.60;96.80;;;6.07;83.73;100236.66;5067487;28;20147;-84
2020/12/01 00:11:04;;;;;;;14.48;8.77;;;6.50;96.70;;;6.11;83.33;100237.19;5067471;28;20537;-85
2020/12/01 00:13:30;;;;;;;15.15;8.25;;;6.60;96.90;;;6.10;83.55;100230.94;5067161;28;20048;-84
2020/12/01 00:15:57;;;;;;;16.92;7.55;;;6.50;96.90;;;6.09;83.45;100240.03;5067384;28;20102;-84
2020/12/01 00:18:25;;;;;;;13.15;7.28;;;6.50;96.90;;;6.07;83.65;100233.97;5066992;28;20041;-83
2020/12/01 00:20:52;;;;;;;13.00;7.45;;;6.60;96.90;;;6.13;83.66;100237.88;5068401;28;20094;-84
2020/12/01 00:23:20;;;;;;;11.63;7.07;;;6.60;96.90;;;6.09;83.84;100226.53;5071009;28;20044;-83
2020/12/01 00:25:47;;;;;;;12.40;6.80;;;6.60;96.80;;;6.07;83.91;100225.84;5071023;28;20513;-84
2020/12/01 00:28:14;;;;;;;12.27;6.95;;;6.60;96.80;;;6.07;83.82;100218.63;5069988;28;20076;-84
2020/12/01 00:30:42;;;;;;;11.70;6.85;;;6.60;96.60;;;6.10;83.54;100222.00;5071145;28;20335;-85
2020/12/01 00:33:10;;;;;;;12.65;7.30;;;6.60;96.50;;;6.11;83.68;100210.16;5071181;28;20127;-84
2020/12/01 00:35:37;;;;;;;12.77;7.05;;;6.60;96.60;;;6.09;84.02;100201.38;5069459;28;20057;-84
2020/12/01 00:38:04;;;;;;;11.88;6.50;;;6.60;96.40;;;6.08;84.12;100205.94;5070766;28;20098;-83
2020/12/01 00:40:32;;;;;;;10.98;6.50;;;6.70;96.40;;;6.09;84.11;100207.63;5070319;28;20071;-84
2020/12/01 00:42:59;;;;;;;11.27;6.50;;;6.70;96.50;;;6.09;83.91;100218.44;5071081;28;20707;-84
2020/12/01 00:45:26;;;;;;;12.38;6.53;;;6.70;96.40;;;6.14;83.84;100220.66;5070863;28;20048;-84
2020/12/01 00:47:53;;;;;;;13.27;6.50;;;6.70;96.40;;;6.13;83.95;100219.81;5069581;28;20036;-83
2020/12/01 00:50:24;;;;;;;10.52;6.32;;;6.70;96.50;;;6.13;83.85;100229.75;5069657;28;20588;-84
2020/12/01 00:52:51;;;;;;;9.63;6.05;;;6.70;96.50;;;6.13;83.36;100214.41;5067065;28;20673;-84
2020/12/01 00:55:19;;;;;;;10.98;6.18;;;6.70;96.60;;;6.14;83.80;100215.25;5069026;28;20495;-83
2020/12/01 00:57:47;;;;;;;10.50;6.55;;;6.70;96.60;;;6.10;83.93;100208.50;5070566;28;20101;-84
2020/12/01 01:00:19;;;;;;;10.93;6.05;;;6.70;96.60;;;6.13;83.83;100209.00;5069058;28;20079;-84
2020/12/01 01:03:03;;;;;;;11.95;7.10;;;6.70;96.70;;;6.15;84.15;100203.41;5069000;28;20055;-84
2020/12/01 01:05:30;;;;;;;12.85;7.22;;;6.70;96.60;;;6.14;84.15;100196.34;5070396;28;20052;-84
2020/12/01 01:07:57;;;;;;;11.02;6.93;;;6.70;96.70;;;6.16;84.10;100197.03;5070648;28;20049;-84
2020/12/01 01:10:27;;;;;;;11.48;7.18;;;6.70;96.60;;;6.17;84.14;100196.88;5070440;28;20090;-84
2020/12/01 01:12:55;;;;;;;11.68;7.22;;;6.70;96.90;;;6.13;84.29;100197.34;5070615;28;20040;-84
2020/12/01 01:15:24;;;;;;;11.95;6.95;;;6.70;96.80;;;6.16;84.32;100197.03;5070668;28;20044;-84
2020/12/01 01:17:51;;;;;;;14.05;8.15;;;6.80;96.50;;;6.19;84.26;100186.75;5070478;28;20102;-83
2020/12/01 01:20:18;;;;;;;13.95;8.43;;;6.70;96.40;;;6.22;83.92;100186.38;5069961;28;20090;-83
2020/12/01 01:22:45;;;;;;;14.95;8.38;;;6.70;96.50;;;6.25;84.12;100191.47;5068830;28;20106;-84
2020/12/01 01:25:13;;;;;;;14.35;8.57;;;6.80;96.70;;;6.24;84.10;100183.53;5034589;28;20294;-83
2020/12/01 01:27:40;;;;;;;13.77;8.23;;;6.80;96.70;;;6.22;84.00;100189.09;5070336;28;20076;-83
2020/12/01 01:30:09;;;;;;;14.30;8.35;;;6.80;96.70;;;6.20;84.55;100183.00;5069709;28;20054;-84
2020/12/01 01:32:36;;;;;;;13.38;8.77;;;6.80;96.80;;;6.20;84.52;100179.47;5069756;28;20036;-84
2020/12/01 01:35:03;;;;;;;16.63;9.50;;;6.80;96.60;;;6.18;84.55;100178.78;5069731;28;20115;-83
2020/12/01 01:37:29;;;;;;;15.10;8.93;;;6.80;96.50;;;6.21;84.15;100184.72;5068491;28;20439;-84
2020/12/01 01:39:56;;;;;;;16.77;9.50;;;6.80;96.60;;;6.24;84.52;100189.81;5068610;28;20060;-85
2020/12/01 01:42:23;;;;;;;15.90;9.85;;;6.80;96.80;;;6.26;84.04;100182.38;5070046;28;20056;-83
2020/12/01 01:44:50;;;;;;;16.13;9.65;;;6.80;96.70;;;6.25;84.04;100177.97;5069966;28;20083;-83
2020/12/01 01:47:22;;;;;;;19.55;10.90;;;6.80;96.60;;;6.26;83.83;100182.38;5053421;28;20053;-84
2020/12/01 01:50:01;;;;;;;16.70;9.60;;;6.80;96.60;;;6.31;83.81;100172.91;5049007;28;20118;-84
2020/12/01 01:52:31;;;;;;;16.73;10.25;;;6.80;96.80;;;6.31;83.70;100176.47;5049702;28;20076;-83
2020/12/01 01:55:07;;;;;;;16.52;9.93;;;6.80;96.80;;;6.29;84.01;100174.94;5050198;28;20049;-83
2020/12/01 01:57:35;;;;;;;15.95;10.05;;;6.80;96.80;;;6.29;83.86;100180.34;5050075;28;20098;-83
2020/12/01 02:00:10;;;;;;;17.45;10.10;;;6.80;96.70;;;6.28;83.90;100184.03;5049306;28;20045;-82
2020/12/01 02:02:39;;;;;;;17.77;10.52;;;6.80;96.60;;;6.27;84.24;100180.50;5049650;28;20045;-83
2020/12/01 02:05:05;;;;;;;17.77;10.98;;;6.80;96.50;;;6.25;84.17;100180.66;5047811;28;20076;-84
2020/12/01 02:07:32;;;;;;;17.60;10.90;;;6.80;96.40;;;6.27;84.17;100177.81;5048869;28;20106;-84
2020/12/01 02:09:59;;;;;;;17.23;10.05;;;6.80;96.50;;;6.30;83.35;100176.63;5048823;28;20049;-84
2020/12/01 02:12:26;;;;;;;19.75;11.70;;;6.80;96.50;;;6.27;83.74;100177.81;5013958;28;20109;-84
2020/12/01 02:14:58;;;;;;;18.08;10.63;;;6.80;96.60;;;6.31;83.68;100172.91;5048810;28;20123;-84
2020/12/01 02:17:30;;;;;;;17.50;10.40;;;6.80;96.70;;;6.28;83.71;100171.38;5047417;28;20045;-83
2020/12/01 02:20:00;;;;;;;;;;;6.80;96.80;;;6.29;83.66;100174.94;5047818;28;20048;-84
2020/12/01 02:22:27;;;;;;;16.77;9.45;;;6.80;96.80;;;6.30;83.72;100171.22;5048957;28;19924;-84
2020/12/01 02:24:57;;;;;;;16.13;9.80;;;6.80;96.80;;;6.35;83.56;100160.75;5049048;28;20045;-84
2020/12/01 02:27:27;;;;;;;16.77;9.23;;;6.80;96.80;;;6.36;83.59;100162.44;5047287;28;20049;-83
2020/12/01 02:29:57;;;;;;;15.80;8.73;;;6.80;97.00;;;6.30;84.12;100158.53;5048763;28;20056;-83
2020/12/01 02:32:25;;;;;;;16.15;9.18;;;6.80;96.80;;;6.29;84.11;100154.16;5047292;28;20063;-84
2020/12/01 02:34:54;;;;;;;15.50;8.95;;;6.80;96.60;;;6.26;83.58;100155.34;5048172;28;20049;-83
2020/12/01 02:37:25;;;;;;;14.35;8.57;;;6.80;96.70;;;6.29;83.73;100148.75;5048264;28;20044;-85
2020/12/01 02:39:53;;;;;;;16.20;8.90;;;6.80;96.70;;;6.26;83.95;100158.06;5048279;28;20098;-84
2020/12/01 02:42:23;;;;;;;14.73;8.15;;;6.80;96.70;;;6.28;84.03;100140.81;5049213;28;20053;-82
2020/12/01 02:44:52;;;;;;;14.02;8.25;;;6.80;96.50;;;6.32;84.10;100136.75;5048795;28;20464;-83
2020/12/01 02:47:19;;;;;;;15.95;8.65;;;6.80;96.50;;;6.33;83.67;100133.06;5048391;28;20044;-84
2020/12/01 02:49:46;;;;;;;16.02;8.73;;;6.80;96.70;;;6.29;84.07;100126.31;5048484;28;20040;-83
2020/12/01 02:52:13;;;;;;;15.85;9.35;;;6.80;96.70;;;6.34;83.86;100126.63;5048789;28;20049;-84
2020/12/01 02:54:41;;;;;;;14.32;8.80;;;6.80;96.70;;;6.35;83.35;100128.34;5046495;28;20136;-83
2020/12/01 02:57:08;;;;;;;14.27;8.57;;;6.80;96.70;;;6.34;84.11;100132.03;5046860;28;20103;-84
2020/12/01 02:59:34;;;;;;;16.52;9.75;;;6.80;96.80;;;6.31;83.94;100124.28;5048441;28;20053;-84
2020/12/01 03:02:02;;;;;;;16.10;9.38;;;6.80;96.70;;;6.33;83.74;100127.66;5048101;28;20524;-84
2020/12/01 03:04:29;;;;;;;15.57;9.50;;;6.80;96.60;;;6.33;83.55;100127.66;5048297;28;20041;-84
2020/12/01 03:06:56;;;;;;;17.23;9.50;;;6.80;96.60;;;6.36;83.87;100127.31;5046903;28;20061;-84
2020/12/01 03:09:23;;;;;;;17.05;10.77;;;6.80;96.60;;;6.34;83.68;100127.50;5047944;28;20127;-84
2020/12/01 03:11:50;;;;;;;17.45;10.43;;;6.80;96.70;;;6.34;83.84;100132.03;5048043;28;20048;-83
2020/12/01 03:14:18;;;;;;;17.73;9.98;;;6.80;96.80;;;6.33;84.04;100130.34;5048660;28;20053;-84
2020/12/01 03:16:46;;;;;;;18.30;10.93;;;6.80;96.70;;;6.32;83.87;100131.34;5046638;28;20409;-83
2020/12/01 03:19:14;;;;;;;19.25;11.18;;;6.80;96.80;;;6.32;83.77;100123.25;5046021;28;20414;-84
2020/12/01 03:21:41;;;;;;;20.45;11.02;;;6.80;96.80;;;6.36;83.58;100127.31;5047983;28;20557;-84
2020/12/01 03:24:08;;;;;;;18.90;11.07;;;6.80;96.90;;;6.37;83.27;100129.84;5047753;28;20122;-83
2020/12/01 03:26:35;;;;;;;19.20;11.32;;;6.80;97.00;;;6.33;83.65;100122.25;5048168;28;20075;-84
2020/12/01 03:29:02;;;;;;;20.38;11.50;;;6.80;97.00;;;6.35;83.78;100128.34;5046471;28;20582;-84
2020/12/01 03:31:28;;;;;;;18.95;11.02;;;6.80;96.80;;;6.36;84.17;100130.00;5047882;28;20045;-84
2020/12/01 03:33:55;;;;;;;19.63;11.45;;;6.90;96.90;;;6.39;83.70;100129.69;5048069;28;20502;-84
2020/12/01 03:36:23;;;;;;;20.63;12.02;;;6.90;96.90;;;6.40;83.61;100128.69;5047932;28;20464;-84
2020/12/01 03:38:50;;;;;;;22.90;11.70;;;6.90;96.90;;;6.44;83.93;100130.03;5046094;28;20060;-84
2020/12/01 03:41:19;;;;;;;19.30;11.27;;;6.90;96.90;;;6.43;83.68;100131.03;5047478;28;20099;-83
2020/12/01 03:43:45;;;;;;;19.33;10.90;;;6.90;96.90;;;6.39;84.69;100137.78;5046125;28;20417;-84
2020/12/01 03:46:13;;;;;;;16.42;10.40;;;6.90;96.90;;;6.41;84.32;100143.88;5049874;28;20080;-84
2020/12/01 03:48:40;;;;;;;19.52;11.35;;;6.90;97.00;;;6.41;84.02;100143.88;5067917;28;20436;-84
2020/12/01 03:51:07;;;;;;;18.52;11.43;;;6.90;97.10;;;6.39;84.49;100138.63;5068057;28;20056;-83
2020/12/01 03:53:34;;;;;;;18.33;11.57;;;6.90;97.10;;;6.42;83.62;100137.47;5068191;28;20517;-83
2020/12/01 03:56:01;;;;;;;18.55;10.93;;;6.90;97.10;;;6.42;83.59;100135.59;5070991;28;20443;-84
2020/12/01 03:58:28;;;;;;;17.58;10.60;;;6.90;97.20;;;6.45;83.77;100132.59;5070548;28;20082;-84
2020/12/01 04:00:55;;;;;;;18.48;10.85;;;6.90;97.20;;;6.48;83.81;100134.09;5071780;28;20520;-83
2020/12/01 04:03:22;;;;;;;20.40;10.52;;;6.90;97.30;;;6.50;83.47;100131.22;5071686;28;20044;-84
2020/12/01 04:05:48;;;;;;;19.00;10.48;;;6.90;97.30;;;6.48;84.09;100130.56;5071348;28;20056;-84
2020/12/01 04:08:18;;;;;;;17.55;10.00;;;6.90;97.30;;;6.49;83.56;100126.81;5071552;28;20109;-84
2020/12/01 04:10:46;;;;;;;18.15;10.65;;;6.90;97.40;;;6.50;83.65;100129.34;5086345;28;20117;-83
2020/12/01 04:13:14;;;;;;;16.38;10.40;;;6.80;97.20;;;6.46;83.60;100122.59;5071676;28;20141;-83
2020/12/01 04:15:40;;;;;;;16.50;10.15;;;6.90;97.40;;;6.45;84.22;100119.06;5070722;28;20036;-83
2020/12/01 04:18:07;;;;;;;17.50;10.45;;;6.90;97.40;;;6.46;83.95;100122.59;5070699;28;20052;-84
2020/12/01 04:20:34;;;;;;;17.33;10.50;;;6.90;97.40;;;6.49;83.37;100124.13;5070613;28;20070;-83
2020/12/01 04:23:01;;;;;;;17.80;10.95;;;6.90;97.40;;;6.48;83.86;100125.97;5071389;28;20056;-84
2020/12/01 04:25:28;;;;;;;16.88;10.65;;;6.90;97.40;;;6.50;83.90;100123.13;5071264;28;20649;-83
2020/12/01 04:27:56;;;;;;;16.20;10.10;;;6.90;97.60;;;6.49;83.55;100127.66;5071223;28;20044;-84
2020/12/01 04:30:25;;;;;;;16.60;10.70;;;6.90;97.60;;;6.49;83.81;100126.81;5069662;28;20139;-84
2020/12/01 04:32:52;;;;;;;16.98;10.48;;;6.90;97.60;;;6.51;83.92;100131.06;5071044;28;20052;-84
2020/12/01 04:35:21;;;;;;;18.10;10.88;;;6.90;97.50;;;6.53;83.70;100138.97;5071312;28;20126;-84
2020/12/01 04:37:48;;;;;;;19.33;12.00;;;6.90;97.50;;;6.51;83.62;100135.59;5069462;28;20571;-84
2020/12/01 04:40:20;;;;;;;18.02;11.05;;;6.90;97.60;;;6.49;84.32;100143.03;5071015;28;20044;-83
2020/12/01 04:42:52;;;;;;;15.70;10.43;;;6.90;97.60;;;6.47;83.92;100143.19;5070984;28;20036;-84
2020/12/01 04:45:21;;;;;;;17.70;11.20;;;6.90;97.50;;;6.46;84.28;100146.94;5071029;28;20048;-83
2020/12/01 04:47:58;;;;;;;19.63;11.60;;;6.90;97.60;;;6.45;84.63;100139.81;5086513;28;20051;-84
2020/12/01 04:50:34;;;;;;;18.02;10.93;;;6.90;97.60;;;6.50;83.98;100140.16;5069034;28;20059;-84
2020/12/01 04:54:00;;;;;;;17.77;11.45;;;6.90;97.70;;;6.53;83.97;100149.78;5086420;28;20164;-83
2020/12/01 04:57:08;;;;;;;18.30;11.18;;;6.90;97.70;;;6.54;84.04;100146.94;5070327;28;20048;-84
2020/12/01 05:00:28;;;;;;;18.67;11.30;;;6.90;97.70;;;6.48;84.72;100142.19;5070482;28;20101;-84
2020/12/01 05:03:22;;;;;;;18.13;11.02;;;6.90;97.70;;;6.44;84.81;100147.09;5065560;28;20056;-83
2020/12/01 05:06:08;;;;;;;20.60;12.07;;;7.00;97.70;;;6.48;84.32;100147.59;5070792;28;20501;-84
2020/12/01 05:08:54;;;;;;;20.95;12.40;;;7.00;97.70;;;6.50;84.53;100147.44;5068958;28;20056;-84
2020/12/01 05:11:39;;;;;;;19.40;11.93;;;7.00;97.70;;;6.53;84.68;100150.66;5068690;28;20051;-84
2020/12/01 05:14:22;;;;;;;19.67;12.20;;;7.00;97.70;;;6.57;84.53;100151.19;5068490;28;20080;-85
2020/12/01 05:17:36;;;;;;;21.35;12.63;;;7.00;97.90;;;6.58;84.34;100153.69;5069469;28;20838;-86
2020/12/01 05:20:06;;;;;;;19.30;12.05;;;7.00;97.90;;;6.58;84.23;100158.25;5068445;28;20094;-86
2020/12/01 05:22:33;;;;;;;21.23;12.45;;;7.00;97.80;;;6.54;84.48;100157.75;5068257;28;20052;-86
2020/12/01 05:25:01;;;;;;;20.88;12.73;;;7.00;97.80;;;6.58;84.66;100153.69;5068242;28;20045;-87
2020/12/01 05:27:32;;;;;;;18.55;12.02;;;7.00;97.80;;;6.61;84.55;100166.88;5066789;28;20194;-87
2020/12/01 05:30:04;;;;;;;21.35;13.43;;;7.00;97.90;;;6.61;84.35;100164.19;5067692;28;20051;-87
2020/12/01 05:32:35;;;;;;;22.10;12.73;;;7.00;97.90;;;6.57;84.63;100162.81;5068093;28;20044;-87
2020/12/01 05:35:14;;;;;;;21.95;12.57;;;7.00;97.90;;;6.57;84.68;100160.13;5068469;28;20045;-86
2020/12/01 05:37:49;;;;;;;21.90;14.20;;;7.00;97.80;;;6.59;84.50;100166.22;5068069;28;20040;-87
2020/12/01 05:40:16;;;;;;;27.92;13.95;;;7.00;97.80;;;6.62;84.53;100168.56;5067639;28;20056;-87
2020/12/01 05:42:46;;;;;;;25.23;14.05;;;7.10;97.90;;;6.63;84.79;100172.97;5067900;28;20798;-86
2020/12/01 05:45:28;;;;;;;25.25;14.20;;;7.10;97.90;;;6.67;84.71;100165.38;5068054;28;20044;-86
2020/12/01 05:48:10;;;;;;;26.45;13.90;;;7.10;98.10;;;6.69;84.34;100170.63;5063121;28;20653;-84
2020/12/01 05:50:53;;;;;;;28.45;14.88;;;7.10;98.00;;;6.70;84.02;100169.59;5070088;28;20234;-85
2020/12/01 05:53:20;;;;;;;31.08;14.95;;;7.10;98.00;;;6.72;84.16;100171.13;5069836;28;20048;-84
2020/12/01 05:56:00;;;;;;;26.70;14.20;;;7.00;98.00;;;6.74;84.37;100168.22;5069888;28;20118;-85
2020/12/01 05:58:44;;;;;;;30.23;16.15;;;7.10;98.10;;;6.73;84.67;100170.09;5069237;28;20064;-84
2020/12/01 06:01:11;;;;;;;;;;;7.10;98.00;;;6.75;84.63;100170.78;5067512;28;20486;-85
2020/12/01 06:04:05;;;;;;;28.83;14.90;;;7.10;98.10;;;6.72;84.71;100168.44;5068876;28;20286;-84
2020/12/01 06:07:11;;;;;;;34.25;15.82;;;7.10;98.10;;;6.71;84.81;100168.59;5069306;28;20083;-85
2020/12/01 06:10:00;;;;;;;29.92;15.68;;;7.10;98.00;;;6.70;84.36;100173.16;5068785;28;20147;-85
2020/12/01 06:13:18;;;;;;;36.53;18.10;;;7.20;98.00;;;6.69;84.90;100176.03;5068929;28;20098;-85
2020/12/01 06:16:16;;;;;;;36.15;18.77;;;7.20;98.00;;;6.68;84.48;100174.31;5060978;28;20052;-86
2020/12/01 06:18:52;;;;;;;35.28;17.65;;;7.10;98.00;;;6.69;85.33;100170.63;5068009;28;20048;-85
2020/12/01 06:21:42;;;;;;;36.97;18.10;;;7.20;98.10;;;6.69;85.34;100179.56;5062408;28;20053;-84
2020/12/01 06:25:05;;;;;;;32.25;16.73;;;7.20;98.10;;;6.69;85.87;100176.03;5048228;28;20048;-83
2020/12/01 06:28:04;;;;;;;32.45;16.55;;;7.20;98.20;;;6.72;85.76;100175.66;5048655;28;20379;-84
2020/12/01 06:31:01;;;;;;;39.15;18.70;;;7.20;98.10;;;6.76;85.52;100171.59;5047213;28;20475;-85
2020/12/01 06:34:22;;;;;;;38.88;17.75;;;7.20;98.10;;;6.73;85.23;100164.69;4987141;28;20052;-85
2020/12/01 06:37:23;;;;;;;38.37;18.53;;;7.30;98.20;;;6.76;85.57;100171.59;5046793;28;20052;-85
2020/12/01 06:40:34;;;;;;;36.33;18.13;;;7.30;98.20;;;6.75;85.88;100178.06;5050838;28;20287;-85
2020/12/01 06:43:09;;;;;;;45.40;19.13;;;7.30;98.10;;;6.76;85.57;100185.13;5067352;28;20072;-85
2020/12/01 06:45:42;;;;;;;38.75;18.23;;;7.30;98.00;;;6.79;85.57;100182.94;5067279;28;21123;-85
2020/12/01 06:48:14;;;;;;;38.50;17.92;;;7.30;98.10;;;6.80;85.28;100181.94;5067043;28;20044;-85
2020/12/01 06:50:48;;;;;;;42.40;19.52;;;7.30;98.10;;;6.81;85.88;100185.47;5049020;28;20048;-85
2020/12/01 06:53:27;;;;;;;44.75;21.08;;;7.40;98.30;;;6.79;86.08;100187.50;5046768;28;20653;-85
2020/12/01 06:55:57;;;;;;;45.42;19.25;;;7.40;98.10;;;6.84;85.59;100195.97;5047095;28;20560;-85
2020/12/01 06:58:39;;;;;;;40.03;19.83;;;7.40;98.00;;;6.83;85.54;100195.13;5046901;28;20044;-85
2020/12/01 07:01:11;;;;;;;43.60;20.92;;;7.40;98.00;;;6.83;85.59;100202.38;5045454;28;20781;-85
2020/12/01 07:03:39;;;;;;;41.33;20.92;;;7.40;98.10;;;6.86;86.02;100204.75;5045097;28;20110;-85
2020/12/01 07:06:17;;;;;;;46.85;21.27;;;7.40;98.10;;;6.91;85.72;100206.94;5044791;28;20052;-85
2020/12/01 07:08:44;;;;;;;47.42;19.05;;;7.40;98.20;;;6.92;85.09;100209.50;5046431;28;20848;-85
2020/12/01 07:11:27;;;;;;;41.47;20.85;;;7.40;98.10;;;6.93;85.14;100213.91;5046256;28;20041;-85
2020/12/01 07:14:00;;;;;;;39.80;19.60;;;7.40;98.10;;;6.93;85.38;100213.03;5046588;28;20060;-85
2020/12/01 07:16:33;;;;;;;38.50;19.05;;;7.40;98.10;;;6.91;85.21;100218.63;5046332;28;20460;-85
2020/12/01 07:19:13;;;;;;;44.53;20.90;;;7.40;98.10;;;6.91;86.03;100217.78;5046335;28;20421;-85
2020/12/01 07:21:56;;;;;;;40.40;20.40;;;7.40;98.00;;;6.91;85.57;100225.88;5045408;28;20106;-85
2020/12/01 07:24:45;;;;;;;45.03;20.17;;;7.40;98.10;;;6.92;85.39;100228.44;5046615;28;20151;-85
2020/12/01 07:27:21;;;;;;;45.92;20.55;;;7.40;98.40;;;6.92;85.38;100225.72;5061571;28;20052;-85
2020/12/01 07:30:15;;;;;;;43.55;18.83;;;7.40;98.20;;;6.97;84.79;100228.78;5062502;28;20048;-85
2020/12/01 07:33:00;;;;;;;43.28;19.80;;;7.40;98.20;;;6.97;85.41;100238.78;5053932;28;20083;-85
2020/12/01 07:35:37;;;;;;;35.95;18.05;;;7.50;98.30;;;6.95;85.46;100241.63;5066437;28;20049;-86
2020/12/01 07:38:19;;;;;;;46.60;20.45;;;7.50;98.30;;;6.95;85.68;100240.78;5066789;28;20048;-85
2020/12/01 07:40:50;;;;;;;46.30;22.05;;;7.50;98.30;;;6.95;85.75;100241.63;5066493;28;20084;-85
2020/12/01 07:43:21;;;;;;;43.70;21.02;;;7.50;98.30;;;6.95;85.42;100238.06;5066336;28;20409;-85
2020/12/01 07:45:50;;;;;;;43.50;21.33;;;7.50;98.30;;;6.94;86.18;100239.94;5064967;28;20063;-85
2020/12/01 07:48:20;;;;;;;44.90;20.08;;;7.50;98.20;;;6.97;85.89;100244.19;5065141;28;20045;-85
2020/12/01 07:50:47;;;;;;;39.90;19.60;;;7.50;98.30;;;6.94;85.83;100245.34;5066351;28;20063;-86
2020/12/01 07:53:19;;;;;;;43.15;19.92;;;7.50;98.30;;;6.94;85.69;100250.75;5066686;28;20098;-86
2020/12/01 07:55:58;;;;;;;39.95;19.60;;;7.50;98.30;;;6.97;85.85;100247.72;5066512;28;20048;-85
2020/12/01 07:58:29;;;;;;;41.08;19.10;;;7.50;98.20;;;6.99;85.35;100248.41;5064944;28;20045;-85
2020/12/01 08:01:01;;;;;;;45.75;17.75;;;7.50;98.20;;;6.94;86.42;100250.75;5064527;28;20055;-86
2020/12/01 08:03:32;;;;;;;36.58;18.35;;;7.50;98.20;;;6.99;85.89;100258.38;5065183;28;20057;-85
2020/12/01 08:06:03;;;;;;;40.45;18.35;;;7.50;98.30;;;6.97;85.59;100261.25;5066468;28;20040;-85
2020/12/01 08:08:34;;;;;;;37.30;18.85;;;7.60;98.20;;;6.99;86.60;100259.22;5064675;28;20048;-85
2020/12/01 08:11:05;;;;;;;39.17;18.05;;;7.60;98.20;;;6.98;86.21;100265.63;5065981;28;20040;-85
2020/12/01 08:13:34;;;;;;;34.17;17.17;;;7.60;98.30;;;7.01;86.72;100262.59;5063949;28;20070;-84
2020/12/01 08:16:12;;;;;;;38.50;18.55;;;7.60;98.20;;;7.01;86.02;100272.59;5064582;28;20052;-85
2020/12/01 08:18:39;;;;;;;34.47;18.08;;;7.60;98.20;;;7.03;86.72;100265.97;5066133;28;20740;-85
2020/12/01 08:21:07;;;;;;;53.35;18.92;;;7.60;98.20;;;7.07;86.27;100261.09;5064521;28;20912;-85
2020/12/01 08:23:36;;;;;;;43.40;18.83;;;7.60;98.30;;;7.10;85.73;100259.88;5066286;28;20410;-85
2020/12/01 08:26:10;;;;;;;34.80;18.05;;;7.60;98.30;;;7.11;85.75;100264.31;5066003;28;20125;-85
2020/12/01 08:28:42;;;;;;;38.78;19.13;;;7.60;98.40;;;7.11;85.84;100258.88;5066531;28;20053;-85
2020/12/01 08:31:24;;;;;;;49.78;20.38;;;7.60;98.40;;;7.14;85.51;100261.25;5066087;28;20045;-85
2020/12/01 08:34:09;;;;;;;38.53;18.88;;;7.60;98.40;;;7.16;85.42;100275.44;5066195;28;20048;-85
2020/12/01 08:36:56;;;;;;;45.88;20.50;;;7.70;98.50;;;7.16;86.18;100280.84;5066383;28;20056;-85
2020/12/01 08:39:54;;;;;;;43.50;19.38;;;7.70;98.50;;;7.18;86.39;100279.69;5065827;28;20128;-85
2020/12/01 08:42:39;;;;;;;41.70;17.25;;;7.70;98.50;;;7.15;86.38;100284.59;5067793;28;20940;-85
2020/12/01 08:45:43;;;;;;;38.30;18.95;;;7.70;98.40;;;7.15;86.40;100279.19;5069292;28;20484;-85
2020/12/01 08:48:28;;;;;;;41.58;18.50;;;7.80;98.20;;;7.17;86.56;100277.16;5069397;28;20044;-85
2020/12/01 08:51:07;;;;;;;41.67;17.77;;;7.80;98.20;;;7.21;86.76;100278.50;5067632;28;20382;-84
2020/12/01 08:53:51;;;;;;;41.40;17.75;;;7.80;98.30;;;7.21;87.66;100276.63;5069479;28;20037;-85
2020/12/01 08:56:32;;;;;;;34.53;17.25;;;7.80;98.70;;;7.22;87.56;100282.91;5069193;28;20044;-84
2020/12/01 08:59:05;;;;;;;33.17;16.58;;;7.80;98.20;;;7.23;87.51;100276.47;5069327;28;20040;-84
2020/12/01 09:01:41;;;;;;;36.15;17.38;;;7.90;98.20;;;7.23;87.98;100284.59;5068193;28;20052;-85
2020/12/01 09:04:22;;;;;;;37.80;16.77;;;7.90;98.20;;;7.22;87.97;100282.91;5069153;28;20053;-85
2020/12/01 09:06:51;;;;;;;30.27;14.43;;;7.90;98.00;;;7.22;87.95;100285.63;5069290;28;20071;-85
2020/12/01 09:09:23;;;;;;;29.33;14.63;;;8.00;97.90;;;7.23;88.72;100287.31;5068408;28;20135;-86
2020/12/01 09:14:45;;;;;;;;;;;8.00;98.20;;;7.31;88.71;100292.75;5067030;28;20722;-85
2020/12/01 09:17:24;;;;;;;25.23;12.10;;;8.10;98.90;;;7.31;88.91;100295.44;5055678;28;19928;-85
2020/12/01 09:20:07;;;;;;;21.95;10.73;;;8.10;98.60;;;7.36;88.51;100298.47;5048527;28;20090;-85
2020/12/01 09:22:37;;;;;;;21.98;10.32;;;8.10;98.00;;;7.36;88.69;100294.91;5048223;28;20040;-85
2020/12/01 09:25:12;;;;;;;25.17;10.32;;;8.10;98.20;;;7.41;88.81;100300.69;5048187;28;20037;-86
2020/12/01 09:27:39;;;;;;;19.77;9.63;;;8.10;98.60;;;7.40;88.02;100299.81;5048406;28;20033;-84
2020/12/01 09:30:27;;;;;;;19.55;8.45;;;8.20;98.00;;;7.44;87.91;100306.59;5047878;28;20075;-85
2020/12/01 09:32:54;;;;;;;22.33;8.43;;;8.20;97.80;;;7.46;88.62;100308.28;5052115;28;20087;-85
2020/12/01 09:35:23;;;;;;;24.15;8.57;;;8.20;97.80;;;7.48;89.09;100311.66;5067081;28;20040;-86
2020/12/01 09:37:50;;;;;;;17.67;7.82;;;8.20;97.90;;;7.49;89.20;100313.38;5068257;28;20043;-86
2020/12/01 09:40:17;;;;;;;22.63;7.70;;;8.40;97.80;;;7.51;88.89;100314.88;5068069;28;20106;-85
2020/12/01 09:42:47;;;;;;;17.75;7.78;;;8.30;98.20;;;7.54;88.94;100316.41;5068180;28;20485;-86
2020/12/01 09:45:23;;;;;;;18.70;7.85;;;8.30;97.80;;;7.53;89.30;100312.84;5067849;28;20048;-86
2020/12/01 09:47:55;;;;;;;16.23;8.10;;;8.30;98.70;;;7.54;89.32;100310.97;5067855;28;20048;-86
2020/12/01 09:50:31;;;;;;;19.40;8.23;;;8.30;98.40;;;7.58;89.14;100317.78;5067895;28;20051;-85
2020/12/01 09:53:12;;;;;;;15.95;8.60;;;8.40;98.10;;;7.57;89.61;100314.19;5066285;28;20079;-85
2020/12/01 09:55:57;;;;;;;14.98;7.85;;;8.40;98.50;;;7.59;89.45;100317.59;5067694;28;20125;-86
2020/12/01 09:59:12;;;;;;;18.10;8.52;;;8.40;98.30;;;7.64;89.34;100311.66;5066703;28;20413;-85
2020/12/01 10:10:09;;;;;;;19.65;7.15;;;8.60;99.10;;;7.73;89.97;100318.78;5067500;28;20048;-85
2020/12/01 10:12:52;;;;;;;13.80;6.78;;;8.60;99.20;;;7.73;89.94;100321.50;5050714;28;20077;-85
2020/12/01 10:26:54;;;;;;;10.35;5.28;;;8.60;97.70;;;7.78;88.55;100319.09;5055570;28;20045;-84
2020/12/01 10:34:56;;;;;;;;;;;8.60;97.50;;;7.85;87.42;100330.09;5055880;28;20132;-84
2020/12/01 10:37:23;;;;;;;7.70;4.28;;;8.60;97.60;;;7.85;88.29;100331.97;5060835;28;19925;-84
2020/12/01 10:39:50;;;;;;;7.85;4.25;;;8.60;97.50;;;7.86;88.02;100328.22;5064068;28;20044;-84
2020/12/01 10:42:18;;;;;;;8.45;4.30;;;8.60;97.70;;;7.87;87.24;100324.50;5058856;28;20045;-84
2020/12/01 10:44:45;;;;;;;8.43;3.90;;;8.60;97.60;;;7.87;88.08;100324.50;5058652;28;20090;-84
2020/12/01 10:47:12;;;;;;;7.10;4.22;;;8.60;98.20;;;7.84;87.88;100317.56;5066545;28;20053;-84
2020/12/01 10:49:39;;;;;;;6.47;3.65;;;8.60;97.70;;;7.85;87.82;100319.25;5052101;28;20047;-84
2020/12/01 10:52:05;;;;;;;7.03;3.80;;;8.60;97.50;;;7.87;87.56;100324.50;5051864;28;20037;-83
2020/12/01 10:54:33;;;;;;;7.07;3.40;;;8.60;97.60;;;7.87;87.71;100324.50;5055746;28;20044;-84
2020/12/01 10:57:01;;;;;;;6.38;3.65;;;8.60;97.40;;;7.88;87.79;100323.47;5054374;28;20124;-84
2020/12/01 10:59:28;;;;;;;7.40;3.80;;;8.60;97.60;;;7.85;88.38;100323.84;5062166;28;20071;-84
2020/12/01 11:01:54;;;;;;;6.40;3.85;;;8.60;97.60;;;7.90;87.65;100332.28;5064102;28;20447;-84
2020/12/01 11:04:22;;;;;;;7.95;4.60;;;8.60;97.60;;;7.92;87.96;100324.81;5059461;28;20049;-84
2020/12/01 11:06:49;;;;;;;7.70;4.53;;;8.70;98.00;;;7.92;88.29;100322.13;5069803;28;20592;-84
2020/12/01 11:09:16;;;;;;;6.78;3.65;;;8.70;98.00;;;7.87;88.57;100328.06;5061558;28;20059;-84
2020/12/01 11:11:43;;;;;;;8.05;4.60;;;8.70;97.70;;;7.89;88.88;100319.78;5050298;28;20045;-84
2020/12/01 11:14:11;;;;;;;6.97;4.35;;;8.70;97.40;;;7.92;88.72;100330.25;5061738;28;20040;-84